Time;durP1;ratioP1;P1;durP2;ratioP2;P2;SDS_P1;SDS_P2;PMS_P1;PMS_P2;Temp;Humidity;BMP_temperature;BMP_pressure;BME280_temperature;BME280_humidity;BME280_pressure;Samples;Min_cycle;Max_cycle;Signal;HPM_P1;HPM_P2
2023/06/08 00:02:16;;;;;;;25.65;8.75;;;;;;;10.52;100.00;102125.19;5093585;28;20464;-78
2023/06/08 00:04:41;;;;;;;15.15;7.95;;;;;;;10.49;100.00;102128.06;5075436;28;20046;-78
2023/06/08 00:07:10;;;;;;;17.40;8.57;;;;;;;10.46;100.00;102122.97;5093142;28;20040;-78
2023/06/08 00:09:37;;;;;;;19.60;8.75;;;;;;;10.44;100.00;102119.56;5094059;28;20097;-79
2023/06/08 00:12:03;;;;;;;19.35;8.13;;;;;;;10.43;100.00;102122.34;5093667;28;20107;-78
2023/06/08 00:14:28;;;;;;;18.42;8.82;;;;;;;10.41;100.00;102119.78;5093368;28;20032;-78
2023/06/08 00:16:53;;;;;;;18.50;8.30;;;;;;;10.39;100.00;102124.38;5093248;28;20059;-78
2023/06/08 00:19:19;;;;;;;18.15;8.50;;;;;;;10.37;100.00;102121.78;5075410;28;20062;-78
2023/06/08 00:21:48;;;;;;;20.40;9.55;;;;;;;10.35;100.00;102115.72;5093045;28;20423;-80
2023/06/08 00:24:15;;;;;;;18.60;8.88;;;;;;;10.33;100.00;102112.34;5092501;28;20392;-79
2023/06/08 00:26:40;;;;;;;21.23;9.13;;;;;;;10.33;100.00;102112.34;5093691;28;20024;-79
2023/06/08 00:29:06;;;;;;;21.77;9.60;;;;;;;10.30;100.00;102112.53;5075107;28;20039;-79
2023/06/08 00:31:31;;;;;;;27.58;10.10;;;;;;;10.30;100.00;102117.84;5093236;28;20480;-78
2023/06/08 00:33:56;;;;;;;25.02;10.23;;;;;;;10.30;100.00;102114.31;5075355;28;20476;-79
2023/06/08 00:36:22;;;;;;;25.40;10.05;;;;;;;10.31;100.00;102108.03;5093153;28;20036;-79
2023/06/08 00:38:47;;;;;;;24.15;9.80;;;;;;;10.30;100.00;102116.97;5092588;28;20161;-80
2023/06/08 00:41:13;;;;;;;18.45;9.48;;;;;;;10.28;100.00;102111.75;5092814;28;20036;-78
2023/06/08 00:43:39;;;;;;;25.05;9.60;;;;;;;10.28;100.00;102108.25;5075095;28;20028;-78
2023/06/08 00:46:07;;;;;;;23.35;9.52;;;;;;;10.23;100.00;102116.56;5093160;28;20044;-79
2023/06/08 00:48:32;;;;;;;19.52;9.52;;;;;;;10.22;100.00;102110.38;5093050;28;20028;-79
2023/06/08 00:51:00;;;;;;;19.67;10.20;;;;;;;10.21;100.00;102111.34;5058254;28;20036;-79
2023/06/08 00:53:26;;;;;;;21.92;9.63;;;;;;;10.20;100.00;102108.78;5093080;28;20036;-79
2023/06/08 00:55:53;;;;;;;23.77;10.50;;;;;;;10.17;100.00;102099.19;5092880;28;20381;-79
2023/06/08 00:58:19;;;;;;;21.65;10.60;;;;;;;10.15;100.00;102102.91;5074731;28;20036;-79
2023/06/08 01:00:46;;;;;;;18.35;10.38;;;;;;;10.16;100.00;102101.97;5092766;28;20400;-79
2023/06/08 01:03:12;;;;;;;21.40;10.07;;;;;;;10.12;100.00;102103.13;5095286;28;20036;-78
2023/06/08 01:05:38;;;;;;;21.00;10.38;;;;;;;10.09;100.00;102101.56;5097315;28;20039;-78
2023/06/08 01:08:04;;;;;;;21.48;10.45;;;;;;;10.07;100.00;102096.31;5096822;28;20112;-78
2023/06/08 01:11:02;;;;;;;19.42;9.77;;;;;;;10.03;100.00;102093.97;5096955;28;20075;-78
2023/06/08 01:14:14;;;;;;;21.40;9.93;;;;;;;10.02;100.00;102085.16;5090148;28;20040;-78
2023/06/08 01:16:49;;;;;;;22.75;10.77;;;;;;;9.99;100.00;102080.03;5091735;28;20040;-79
2023/06/08 01:19:38;;;;;;;29.40;12.40;;;;;;;9.96;100.00;102082.91;5096533;28;20082;-78
2023/06/08 01:22:07;;;;;;;23.75;11.35;;;;;;;9.95;100.00;102091.00;5096745;28;20039;-79
2023/06/08 01:24:35;;;;;;;25.33;10.80;;;;;;;9.92;100.00;102085.88;5096453;28;20024;-78
2023/06/08 01:27:06;;;;;;;28.27;10.93;;;;;;;9.89;100.00;102086.94;5096032;28;20468;-78
2023/06/08 01:29:33;;;;;;;17.77;10.65;;;;;;;9.86;100.00;102092.47;5079460;28;20101;-78
2023/06/08 01:31:59;;;;;;;21.15;11.23;;;;;;;9.85;100.00;102080.13;5077861;28;20488;-79
2023/06/08 01:34:25;;;;;;;23.90;11.63;;;;;;;9.84;100.00;102081.09;5096363;28;20032;-78
2023/06/08 01:37:10;;;;;;;20.50;11.15;;;;;;;9.81;100.00;102082.16;5095611;28;20031;-78
2023/06/08 01:39:51;;;;;;;20.08;11.07;;;;;;;9.80;100.00;102074.28;5096045;28;20024;-78
2023/06/08 01:42:19;;;;;;;23.08;11.90;;;;;;;9.78;100.00;102070.84;5096446;28;20035;-78
2023/06/08 01:44:52;;;;;;;27.45;11.25;;;;;;;9.76;100.00;102078.09;5096088;28;20024;-78
2023/06/08 01:47:18;;;;;;;24.27;11.98;;;;;;;9.74;100.00;102072.03;5095790;28;20448;-78
2023/06/08 01:49:45;;;;;;;27.45;12.48;;;;;;;9.70;100.00;102060.75;5077928;28;20032;-78
2023/06/08 01:52:11;;;;;;;30.58;12.30;;;;;;;9.69;100.00;102070.53;5096131;28;20069;-78
2023/06/08 01:54:36;;;;;;;27.20;12.18;;;;;;;9.67;100.00;102061.81;5095543;28;20028;-78
2023/06/08 01:57:03;;;;;;;23.33;12.40;;;;;;;9.69;100.00;102067.88;5096060;28;20035;-79
2023/06/08 01:59:28;;;;;;;28.85;12.90;;;;;;;9.69;100.00;102067.88;5073914;28;20056;-78
2023/06/08 02:01:54;;;;;;;27.30;12.57;;;;;;;9.71;100.00;102073.94;5074025;28;20481;-78
2023/06/08 02:04:19;;;;;;;32.30;12.48;;;;;;;9.70;100.00;102069.59;5075546;28;20033;-78
2023/06/08 02:06:45;;;;;;;25.58;11.80;;;;;;;9.73;100.00;102070.34;5075739;28;20158;-78
2023/06/08 02:09:10;;;;;;;24.58;12.98;;;;;;;9.71;100.00;102068.63;5075427;28;20031;-78
2023/06/08 02:11:35;;;;;;;20.58;11.98;;;;;;;9.70;100.00;102066.06;5075568;28;20045;-78
2023/06/08 02:14:03;;;;;;;22.33;12.10;;;;;;;9.68;100.00;102070.63;5072429;28;20036;-79
2023/06/08 02:16:28;;;;;;;25.98;12.35;;;;;;;9.64;100.00;102067.34;5074267;28;20083;-79
2023/06/08 02:18:54;;;;;;;24.77;12.02;;;;;;;9.62;100.00;102065.75;5075423;28;20489;-78
2023/06/08 02:21:19;;;;;;;19.08;11.77;;;;;;;9.60;100.00;102064.97;5074060;28;20055;-78
2023/06/08 02:23:44;;;;;;;19.02;11.20;;;;;;;9.60;100.00;102057.00;5074801;28;20422;-78
2023/06/08 02:26:10;;;;;;;26.65;12.18;;;;;;;9.61;100.00;102056.91;5073761;28;20119;-78
2023/06/08 02:28:35;;;;;;;22.40;11.75;;;;;;;9.61;100.00;102061.38;5075173;28;20492;-78
2023/06/08 02:31:03;;;;;;;23.48;11.82;;;;;;;9.61;100.00;102059.56;5075124;28;20078;-78
2023/06/08 02:33:28;;;;;;;31.90;11.57;;;;;;;9.60;100.00;102060.53;5075322;28;20054;-78
2023/06/08 02:35:54;;;;;;;28.92;12.05;;;;;;;9.57;100.00;102063.41;5075371;28;20103;-79
2023/06/08 02:38:19;;;;;;;23.33;11.68;;;;;;;9.53;100.00;102061.88;5073336;28;20033;-79
2023/06/08 02:40:44;;;;;;;20.13;11.68;;;;;;;9.53;100.00;102053.91;5073124;28;20377;-78
2023/06/08 02:43:10;;;;;;;29.95;11.30;;;;;;;9.48;100.00;102054.22;5074485;28;20040;-78
2023/06/08 02:45:35;;;;;;;20.95;11.55;;;;;;;9.44;100.00;102060.69;5075007;28;20032;-79
2023/06/08 02:48:01;;;;;;;22.38;11.60;;;;;;;9.43;100.00;102053.66;5074823;28;20461;-79
2023/06/08 02:50:26;;;;;;;29.13;13.07;;;;;;;9.41;100.00;102044.13;5074956;28;20059;-79
2023/06/08 02:52:52;;;;;;;28.23;11.57;;;;;;;9.41;100.00;102052.09;5074427;28;20040;-79
2023/06/08 02:55:17;;;;;;;26.05;12.23;;;;;;;9.39;100.00;102054.84;5073361;28;20353;-79
2023/06/08 02:57:43;;;;;;;23.95;11.40;;;;;;;9.38;100.00;102061.09;5074457;28;20032;-79
2023/06/08 03:00:10;;;;;;;25.45;11.85;;;;;;;9.35;100.00;102056.84;5091660;28;20089;-79
2023/06/08 03:02:36;;;;;;;26.17;12.82;;;;;;;9.37;100.00;102063.88;5094682;28;20484;-79
2023/06/08 03:05:04;;;;;;;24.45;12.52;;;;;;;9.37;100.00;102066.53;5076680;28;20051;-77
2023/06/08 03:07:33;;;;;;;22.33;11.63;;;;;;;9.40;100.00;102068.97;5076870;28;20040;-77
2023/06/08 03:09:59;;;;;;;27.42;13.13;;;;;;;9.42;100.00;102064.41;5076740;28;20082;-77
2023/06/08 03:12:24;;;;;;;21.33;11.98;;;;;;;9.45;100.00;102065.06;5094713;28;20032;-78
2023/06/08 03:14:49;;;;;;;24.13;12.32;;;;;;;9.57;100.00;102058.09;5076386;28;20063;-78
2023/06/08 03:17:19;;;;;;;26.88;13.25;;;;;;;9.69;100.00;102064.38;5075997;28;20028;-78
2023/06/08 03:19:44;;;;;;;27.58;12.35;;;;;;;9.79;100.00;102057.50;5094311;28;20380;-78
2023/06/08 03:22:10;;;;;;;29.73;12.68;;;;;;;9.87;100.00;102057.81;5094801;28;20031;-79
2023/06/08 03:24:36;;;;;;;22.83;11.52;;;;;;;9.95;100.00;102057.28;5076975;28;20050;-78
2023/06/08 03:27:03;;;;;;;20.27;11.25;;;;;;;10.02;100.00;102061.22;5093561;28;20468;-78
2023/06/08 03:29:30;;;;;;;23.85;11.88;;;;;;;10.09;100.00;102064.31;5094135;28;20092;-78
2023/06/08 03:31:56;;;;;;;24.35;12.02;;;;;;;10.15;100.00;102063.91;5094431;28;20028;-78
2023/06/08 03:34:25;;;;;;;17.60;10.52;;;;;;;10.21;100.00;102065.25;5094115;28;20102;-78
2023/06/08 03:36:50;;;;;;;23.02;11.88;;;;;;;10.28;100.00;102073.66;5093705;28;20032;-78
2023/06/08 03:39:16;;;;;;;18.90;10.65;;;;;;;10.29;100.00;102072.72;5093652;28;20516;-78
2023/06/08 03:41:41;;;;;;;22.90;10.18;;;;;;;10.31;100.00;102055.69;5075593;28;20032;-78
2023/06/08 03:44:06;;;;;;;18.70;10.93;;;;;;;10.35;100.00;102059.88;5093934;28;20365;-78
2023/06/08 03:46:32;;;;;;;24.00;10.93;;;;;;;10.40;100.00;102062.19;5093645;28;20379;-78
2023/06/08 03:48:57;;;;;;;21.20;10.63;;;;;;;10.37;100.00;102060.59;5093506;28;20082;-78
2023/06/08 03:51:22;;;;;;;23.42;10.68;;;;;;;10.35;100.00;102061.69;5094067;28;20039;-78
2023/06/08 03:53:50;;;;;;;24.98;10.10;;;;;;;10.33;100.00;102058.22;5094024;28;20471;-79
2023/06/08 03:56:15;;;;;;;21.70;10.98;;;;;;;10.29;100.00;102056.75;5093597;28;20035;-78
2023/06/08 03:58:44;;;;;;;22.52;10.75;;;;;;;10.23;100.00;102058.03;5075491;28;20048;-78
2023/06/08 04:01:12;;;;;;;16.65;10.40;;;;;;;10.21;100.00;102063.47;5093597;28;20500;-78
2023/06/08 04:03:38;;;;;;;28.02;10.38;;;;;;;10.19;100.00;102062.69;5093520;28;20028;-78
2023/06/08 04:06:08;;;;;;;21.65;9.90;;;;;;;10.18;100.00;102061.03;5093592;28;20073;-79
2023/06/08 04:08:44;;;;;;;21.17;10.10;;;;;;;10.15;100.00;102066.56;5093411;28;20039;-78
2023/06/08 04:11:10;;;;;;;20.90;10.23;;;;;;;10.13;100.00;102063.13;5094120;28;20342;-78
2023/06/08 04:13:36;;;;;;;23.90;10.23;;;;;;;10.11;100.00;102065.06;5093460;28;20062;-79
2023/06/08 04:16:09;;;;;;;19.25;10.45;;;;;;;10.11;100.00;102062.41;5093482;28;20143;-79
2023/06/08 04:18:39;;;;;;;19.70;10.02;;;;;;;10.12;100.00;102068.56;5075530;28;20376;-79
2023/06/08 04:21:05;;;;;;;27.13;10.45;;;;;;;10.10;100.00;102060.69;5076069;28;20119;-79
2023/06/08 04:23:35;;;;;;;18.83;10.25;;;;;;;10.11;100.00;102065.06;5093106;28;20040;-77
2023/06/08 04:26:07;;;;;;;25.60;11.05;;;;;;;10.13;100.00;102064.94;5093196;28;20039;-78
2023/06/08 04:28:34;;;;;;;22.23;10.48;;;;;;;10.13;100.00;102064.94;5093174;28;20029;-78
2023/06/08 04:31:00;;;;;;;19.05;10.20;;;;;;;10.13;100.00;102063.13;5075050;28;20035;-78
2023/06/08 04:33:27;;;;;;;19.55;10.07;;;;;;;10.16;100.00;102065.56;5092896;28;20024;-79
2023/06/08 04:35:52;;;;;;;22.55;10.43;;;;;;;10.20;100.00;102067.06;5074543;28;20024;-78
2023/06/08 04:38:18;;;;;;;18.13;10.07;;;;;;;10.26;100.00;102064.97;5095185;28;20395;-78
2023/06/08 04:40:48;;;;;;;22.42;11.27;;;;;;;10.30;100.00;102058.44;5097105;28;20036;-78
2023/06/08 04:43:13;;;;;;;23.48;10.65;;;;;;;10.32;100.00;102056.53;5097012;28;20521;-78
2023/06/08 04:45:42;;;;;;;19.20;9.50;;;;;;;10.34;100.00;102058.16;5096916;28;20032;-78
2023/06/08 04:48:09;;;;;;;17.75;10.15;;;;;;;10.38;100.00;102064.13;5097017;28;20031;-78
2023/06/08 04:50:34;;;;;;;20.67;10.15;;;;;;;10.40;100.00;102063.06;5079026;28;20039;-78
2023/06/08 04:53:01;;;;;;;21.17;11.57;;;;;;;10.43;100.00;102066.47;5097111;28;20036;-78
2023/06/08 04:55:27;;;;;;;20.25;10.65;;;;;;;10.44;100.00;102060.19;5097047;28;20047;-79
2023/06/08 04:57:52;;;;;;;20.20;10.57;;;;;;;10.45;100.00;102062.75;5097090;28;20028;-78
2023/06/08 05:00:18;;;;;;;24.08;10.82;;;;;;;10.46;100.00;102058.25;5097500;28;20093;-78
2023/06/08 05:02:44;;;;;;;26.25;11.57;;;;;;;10.46;100.00;102059.09;5096941;28;20028;-79
2023/06/08 05:05:09;;;;;;;21.58;10.25;;;;;;;10.47;100.00;102062.63;5096649;28;20177;-77
2023/06/08 05:07:35;;;;;;;18.58;10.30;;;;;;;10.48;100.00;102051.88;5096251;28;20035;-78
2023/06/08 05:10:01;;;;;;;26.73;11.27;;;;;;;10.50;100.00;102051.78;5096217;28;20120;-79
2023/06/08 05:12:29;;;;;;;23.85;10.77;;;;;;;10.53;100.00;102051.53;5096746;28;20177;-78
2023/06/08 05:14:57;;;;;;;26.80;12.18;;;;;;;10.55;100.00;102054.94;5096692;28;20032;-79
2023/06/08 05:17:22;;;;;;;24.65;11.80;;;;;;;10.58;100.00;102052.06;5096634;28;20035;-78
2023/06/08 05:19:51;;;;;;;20.50;11.25;;;;;;;10.63;100.00;102057.03;5078092;28;20061;-78
2023/06/08 05:22:16;;;;;;;18.55;10.82;;;;;;;10.67;100.00;102048.72;5096674;28;20468;-79
2023/06/08 05:24:42;;;;;;;21.88;11.38;;;;;;;10.72;100.00;102046.59;5096675;28;20090;-78
2023/06/08 05:27:07;;;;;;;18.45;10.60;;;;;;;10.79;100.00;102052.31;5097027;28;20114;-82
2023/06/08 05:29:32;;;;;;;17.02;11.02;;;;;;;10.83;100.00;102047.66;5096530;28;20127;-78
2023/06/08 05:31:58;;;;;;;20.88;10.27;;;;;;;10.86;100.00;102044.75;5096444;28;20047;-78
2023/06/08 05:34:23;;;;;;;24.27;11.25;;;;;;;10.92;100.00;102045.16;5096308;28;20039;-78
2023/06/08 05:36:49;;;;;;;18.20;10.52;;;;;;;10.99;100.00;102050.88;5095985;28;20089;-78
2023/06/08 05:39:14;;;;;;;22.30;10.57;;;;;;;11.09;100.00;102053.72;5096120;28;20111;-77
2023/06/08 05:41:40;;;;;;;21.92;10.95;;;;;;;11.18;100.00;102046.84;5095803;28;20042;-79
2023/06/08 05:44:05;;;;;;;18.15;10.55;;;;;;;11.29;100.00;102038.94;5096214;28;20063;-76
2023/06/08 05:46:30;;;;;;;22.15;10.95;;;;;;;11.42;100.00;102031.72;5095885;28;20032;-77
2023/06/08 05:48:56;;;;;;;21.95;10.85;;;;;;;11.58;100.00;102031.38;5095917;28;20025;-79
2023/06/08 05:51:22;;;;;;;19.10;10.10;;;;;;;11.74;100.00;102028.41;5095667;28;20062;-78
2023/06/08 05:53:48;;;;;;;20.98;10.23;;;;;;;11.92;100.00;102028.81;5095647;28;20436;-81
2023/06/08 05:56:13;;;;;;;18.90;9.70;;;;;;;12.08;100.00;102027.66;5095491;28;20063;-83
2023/06/08 05:58:39;;;;;;;19.65;9.52;;;;;;;12.25;100.00;102035.19;5077046;28;20024;-83
2023/06/08 06:01:04;;;;;;;19.90;9.55;;;;;;;12.46;100.00;102026.44;5095420;28;20084;-81
2023/06/08 06:03:31;;;;;;;18.05;10.07;;;;;;;12.63;100.00;102025.94;5077679;28;20036;-86
2023/06/08 06:05:58;;;;;;;18.45;9.18;;;;;;;12.86;100.00;102015.22;5096529;28;20065;-79
2023/06/08 06:08:23;;;;;;;18.88;9.25;;;;;;;13.13;100.00;102014.75;5095771;28;20081;-81
2023/06/08 06:10:49;;;;;;;18.17;8.93;;;;;;;13.30;100.00;102018.72;5095472;28;20039;-81
2023/06/08 06:13:14;;;;;;;17.50;9.38;;;;;;;13.49;100.00;102018.03;5095197;28;20111;-80
2023/06/08 06:15:40;;;;;;;13.85;8.68;;;;;;;13.61;100.00;102020.66;5077063;28;20054;-80
2023/06/08 06:18:05;;;;;;;21.38;9.63;;;;;;;13.73;100.00;102016.94;5077246;28;20025;-79
2023/06/08 06:20:31;;;;;;;16.92;9.25;;;;;;;13.83;100.00;102009.81;5076749;28;20101;-78
2023/06/08 06:22:56;;;;;;;15.85;9.93;;;;;;;13.96;100.00;102016.78;5095342;28;20040;-78
2023/06/08 06:25:21;;;;;;;19.23;8.70;;;;;;;14.10;100.00;102019.94;5095568;28;20033;-79
2023/06/08 06:27:47;;;;;;;13.15;8.05;;;;;;;14.28;100.00;102011.31;5095390;28;20099;-80
2023/06/08 06:30:13;;;;;;;18.38;8.98;;;;;;;14.52;100.00;102013.63;5095554;28;20032;-78
2023/06/08 06:32:38;;;;;;;16.55;9.38;;;;;;;14.67;100.00;102014.13;5077330;28;20383;-79
2023/06/08 06:35:04;;;;;;;19.45;8.80;;;;;;;14.79;100.00;102018.41;5077261;28;20496;-79
2023/06/08 06:37:34;;;;;;;19.45;8.65;;;;;;;15.03;100.00;102016.31;5095155;28;20042;-79
2023/06/08 06:40:01;;;;;;;20.80;8.88;;;;;;;15.29;100.00;102011.25;5095401;28;20060;-79
2023/06/08 06:42:27;;;;;;;15.10;8.60;;;;;;;15.51;100.00;102016.31;5095366;28;20028;-79
2023/06/08 06:44:52;;;;;;;20.13;8.32;;;;;;;15.73;100.00;102014.28;5094966;28;20089;-79
2023/06/08 06:47:17;;;;;;;14.73;7.88;;;;;;;15.88;100.00;102014.69;5095026;28;20063;-79
2023/06/08 06:49:43;;;;;;;18.63;8.40;;;;;;;15.91;100.00;102018.94;5094997;28;20043;-81
2023/06/08 06:52:08;;;;;;;16.63;8.15;;;;;;;15.89;100.00;102020.94;5094634;28;20032;-79
2023/06/08 06:54:33;;;;;;;19.45;8.45;;;;;;;15.78;100.00;102024.59;5077160;28;20031;-79
2023/06/08 06:56:59;;;;;;;17.52;8.68;;;;;;;15.61;100.00;102018.97;5094423;28;20028;-79
2023/06/08 06:59:24;;;;;;;18.73;7.85;;;;;;;15.67;100.00;102031.81;5094600;28;20055;-79
2023/06/08 07:01:50;;;;;;;16.98;8.20;;;;;;;15.70;100.00;102022.63;5093933;28;20127;-79
2023/06/08 07:04:15;;;;;;;13.35;7.45;;;;;;;15.75;100.00;102019.50;5094776;28;20115;-79
2023/06/08 07:06:42;;;;;;;21.40;7.95;;;;;;;15.82;100.00;102017.97;5094768;28;20388;-79
2023/06/08 07:09:09;;;;;;;19.00;8.05;;;;;;;15.83;100.00;102017.81;5094622;28;20032;-80
2023/06/08 07:11:35;;;;;;;11.68;7.70;;;;;;;15.91;100.00;102013.56;5094491;28;20024;-79
2023/06/08 07:14:00;;;;;;;17.52;8.48;;;;;;;16.01;100.00;102023.28;5094936;28;20034;-78
2023/06/08 07:16:26;;;;;;;17.38;8.23;;;;;;;16.15;100.00;102019.31;5094416;28;20036;-77
2023/06/08 07:18:51;;;;;;;19.17;8.52;;;;;;;16.17;100.00;102024.53;5094459;28;20133;-77
2023/06/08 07:21:19;;;;;;;18.55;8.73;;;;;;;16.02;100.00;102016.09;5094553;28;20028;-78
2023/06/08 07:23:45;;;;;;;15.32;8.82;;;;;;;16.01;100.00;102011.72;5075641;28;20032;-76
2023/06/08 07:26:11;;;;;;;16.10;9.20;;;;;;;16.12;100.00;102016.91;5094468;28;20100;-78
2023/06/08 07:28:37;;;;;;;23.70;9.60;;;;;;;16.28;100.00;102007.38;5094560;28;20063;-79
2023/06/08 07:31:03;;;;;;;16.27;8.48;;;;;;;16.46;100.00;102010.94;5093651;28;20100;-79
2023/06/08 07:33:28;;;;;;;19.88;8.70;;;;;;;16.69;100.00;102010.53;5093645;28;20038;-78
2023/06/08 07:35:54;;;;;;;17.63;8.85;;;;;;;16.96;100.00;102011.50;5093909;28;20036;-79
2023/06/08 07:38:19;;;;;;;18.00;8.90;;;;;;;17.15;100.00;102010.53;5094040;28;20047;-78
2023/06/08 07:40:45;;;;;;;18.08;8.52;;;;;;;17.24;100.00;102014.97;5075651;28;20579;-79
2023/06/08 07:43:10;;;;;;;22.70;8.90;;;;;;;17.44;100.00;102015.66;5094399;28;20043;-78
2023/06/08 07:45:35;;;;;;;17.33;8.80;;;;;;;17.63;100.00;102012.78;5094019;28;20036;-79
2023/06/08 07:48:01;;;;;;;21.10;8.55;;;;;;;17.78;100.00;102009.53;5093799;28;20111;-78
2023/06/08 07:50:26;;;;;;;16.40;8.20;;;;;;;17.95;100.00;102014.03;5093808;28;20036;-77
2023/06/08 07:52:52;;;;;;;19.83;9.23;;;;;;;18.06;100.00;102015.59;5093719;28;20413;-77
2023/06/08 07:55:17;;;;;;;19.52;8.85;;;;;;;18.01;100.00;102015.25;5093375;28;20093;-79
2023/06/08 07:57:44;;;;;;;18.58;9.50;;;;;;;18.00;100.00;102005.47;5094002;28;20134;-79
2023/06/08 08:00:10;;;;;;;22.80;10.07;;;;;;;17.94;100.00;102009.66;5093316;28;20070;-78
2023/06/08 08:02:35;;;;;;;20.42;9.35;;;;;;;17.90;100.00;102007.41;5075279;28;20127;-79
2023/06/08 08:05:01;;;;;;;16.50;8.63;;;;;;;18.00;100.00;102001.94;5094095;28;20115;-79
2023/06/08 08:07:26;;;;;;;19.27;8.27;;;;;;;18.16;100.00;102004.72;5093577;28;20391;-79
2023/06/08 08:09:52;;;;;;;21.15;9.35;;;;;;;18.19;100.00;102000.88;5093433;28;20518;-79
2023/06/08 08:12:17;;;;;;;13.55;8.02;;;;;;;18.09;100.00;101996.44;5093757;28;20032;-79
2023/06/08 08:14:42;;;;;;;21.65;7.80;;;;;;;18.32;100.00;101993.19;5093382;28;20032;-79
2023/06/08 08:17:08;;;;;;;18.92;8.23;;;;;;;18.64;100.00;102002.38;5093070;28;20032;-78
2023/06/08 08:19:33;;;;;;;24.50;8.02;;;;;;;18.73;100.00;101997.84;5093310;28;20540;-79
2023/06/08 08:21:58;;;;;;;15.52;7.20;;;;;;;18.84;100.00;101998.38;5093261;28;20024;-78
2023/06/08 08:24:24;;;;;;;14.05;6.20;;;;;;;19.10;100.00;101997.44;5075296;28;20040;-79
2023/06/08 08:26:54;;;;;;;18.75;7.60;;;;;;;19.19;100.00;101998.28;5093219;28;20043;-78
2023/06/08 08:29:20;;;;;;;15.88;6.57;;;;;;;19.38;100.00;101994.41;5058597;28;20047;-78
2023/06/08 08:31:45;;;;;;;15.88;6.40;;;;;;;19.55;100.00;101995.22;5093178;28;20028;-78
2023/06/08 08:34:11;;;;;;;11.13;5.97;;;;;;;19.77;100.00;101998.25;5093290;28;20451;-77
2023/06/08 08:36:38;;;;;;;12.07;6.30;;;;;;;19.86;100.00;101994.53;5093160;28;20028;-78
2023/06/08 08:39:04;;;;;;;10.73;5.60;;;;;;;20.06;100.00;102001.25;5093347;28;20491;-79
2023/06/08 08:41:32;;;;;;;18.17;6.88;;;;;;;19.88;100.00;102004.16;5092831;28;20028;-78
2023/06/08 08:44:01;;;;;;;19.17;6.78;;;;;;;19.56;100.00;102003.16;5093042;28;20456;-80
2023/06/08 08:46:30;;;;;;;11.50;6.10;;;;;;;19.74;100.00;102000.25;5092870;28;20038;-78
2023/06/08 08:49:00;;;;;;;14.82;6.32;;;;;;;19.61;100.00;102009.91;5093381;28;20031;-78
2023/06/08 08:51:28;;;;;;;17.13;6.25;;;;;;;19.81;100.00;101994.19;5093707;28;20044;-80
2023/06/08 08:53:55;;;;;;;17.90;6.20;;;;;;;20.14;100.00;101991.41;5093030;28;20055;-78
2023/06/08 08:56:22;;;;;;;12.05;6.57;;;;;;;20.32;98.05;101993.84;5092769;28;20088;-77
2023/06/08 08:58:50;;;;;;;14.30;5.65;;;;;;;20.37;100.00;101983.38;5092933;28;20048;-78
2023/06/08 09:01:17;;;;;;;13.57;6.25;;;;;;;20.86;100.00;101991.25;5093560;28;20035;-78
2023/06/08 09:03:43;;;;;;;13.85;6.60;;;;;;;21.37;91.77;101984.44;5092859;28;20070;-78
2023/06/08 09:06:08;;;;;;;11.50;6.13;;;;;;;21.86;86.78;101985.84;5093523;28;20113;-78
2023/06/08 09:08:33;;;;;;;14.20;6.22;;;;;;;22.35;80.82;101996.13;5092830;28;20032;-79
2023/06/08 09:11:09;;;;;;;13.18;5.55;;;;;;;22.87;73.86;101994.19;5093145;28;20056;-84
2023/06/08 09:13:34;;;;;;;13.88;6.13;;;;;;;23.13;73.88;101990.94;5092838;28;20035;-79
2023/06/08 09:16:20;;;;;;;12.02;6.15;;;;;;;23.29;70.96;101988.97;5075128;28;20040;-80
2023/06/08 09:18:47;;;;;;;16.50;6.57;;;;;;;23.40;68.95;101991.16;5092256;28;20036;-81
2023/06/08 09:21:29;;;;;;;15.82;6.53;;;;;;;23.36;68.15;101988.00;5075318;28;20036;-80
2023/06/08 09:24:14;;;;;;;10.27;5.80;;;;;;;23.61;64.38;101978.56;5094136;28;20134;-85
2023/06/08 09:26:49;;;;;;;12.90;5.88;;;;;;;23.96;64.17;101975.88;5097104;28;20040;-77
2023/06/08 09:29:36;;;;;;;13.20;5.88;;;;;;;24.31;61.00;101973.13;5096551;28;20028;-78
2023/06/08 09:32:02;;;;;;;11.13;5.60;;;;;;;24.27;58.34;101976.25;5096393;28;20061;-79
2023/06/08 09:34:33;;;;;;;10.27;5.32;;;;;;;24.34;60.92;101978.16;5095919;28;20452;-82
2023/06/08 09:37:10;;;;;;;14.27;6.43;;;;;;;24.50;58.23;101966.91;5096052;28;20039;-81
2023/06/08 09:39:43;;;;;;;16.17;5.40;;;;;;;24.34;60.88;101967.28;5077860;28;20364;-82
2023/06/08 09:42:09;;;;;;;14.35;5.63;;;;;;;24.70;58.24;101966.16;5095966;28;20085;-81
2023/06/08 09:44:35;;;;;;;16.45;5.20;;;;;;;24.60;58.22;101959.25;5096292;28;20461;-82
2023/06/08 09:47:18;;;;;;;10.98;5.00;;;;;;;24.76;57.78;101957.16;5096208;28;20086;-82
2023/06/08 09:49:44;;;;;;;10.05;5.60;;;;;;;24.62;53.28;101950.88;5077966;28;20036;-81
2023/06/08 09:52:09;;;;;;;12.07;5.15;;;;;;;24.93;57.05;101963.91;5078123;28;20028;-80
2023/06/08 09:54:36;;;;;;;13.05;5.68;;;;;;;24.85;53.22;101960.53;5096251;28;20063;-81
2023/06/08 09:57:02;;;;;;;9.40;5.10;;;;;;;25.14;55.21;101956.56;5077923;28;20487;-81
2023/06/08 09:59:36;;;;;;;8.50;5.07;;;;;;;25.48;54.72;101963.72;5095832;28;20048;-80
2023/06/08 10:02:19;;;;;;;13.65;5.57;;;;;;;25.81;53.98;101957.38;5095671;28;20032;-80
2023/06/08 10:04:52;;;;;;;13.55;5.45;;;;;;;26.08;50.63;101959.19;5096149;28;20119;-80
2023/06/08 10:07:23;;;;;;;9.68;5.55;;;;;;;25.94;51.19;101959.19;5096092;28;20028;-79
2023/06/08 10:09:50;;;;;;;13.55;5.30;;;;;;;26.18;53.96;101959.56;5096668;28;20028;-79
2023/06/08 10:12:15;;;;;;;16.15;5.30;;;;;;;26.38;50.65;101957.56;5096049;28;20123;-80
2023/06/08 10:14:41;;;;;;;14.13;5.28;;;;;;;26.56;49.15;101964.22;5095722;28;20028;-80
2023/06/08 10:17:07;;;;;;;12.43;5.85;;;;;;;26.46;48.94;101961.13;5095847;28;20053;-81
2023/06/08 10:19:35;;;;;;;12.57;5.93;;;;;;;26.71;51.21;101956.56;5095704;28;20104;-82
2023/06/08 10:22:01;;;;;;;10.80;5.57;;;;;;;26.42;48.03;101960.69;5095935;28;20417;-81
2023/06/08 10:24:30;;;;;;;9.65;4.97;;;;;;;26.20;50.11;101952.03;5096506;28;20028;-81
2023/06/08 10:27:27;;;;;;;7.53;4.78;;;;;;;26.50;52.04;101956.88;5095689;28;20028;-82
2023/06/08 10:29:55;;;;;;;7.72;4.47;;;;;;;26.97;50.14;101945.69;5095566;28;20096;-81
2023/06/08 10:32:29;;;;;;;11.50;5.38;;;;;;;27.13;47.19;101941.56;5095032;28;20036;-81
2023/06/08 10:35:00;;;;;;;12.82;5.00;;;;;;;27.54;49.55;101943.72;5094710;28;20061;-82
2023/06/08 10:37:28;;;;;;;10.20;5.10;;;;;;;27.77;46.65;101944.97;5094818;28;20066;-82
2023/06/08 10:39:53;;;;;;;8.32;4.60;;;;;;;27.66;48.63;101940.22;5095364;28;20032;-82
2023/06/08 10:42:19;;;;;;;12.23;4.70;;;;;;;27.76;46.81;101944.09;5094909;28;20036;-82
2023/06/08 10:44:54;;;;;;;9.27;4.68;;;;;;;27.63;45.26;101941.50;5076717;28;20043;-80
2023/06/08 10:47:20;;;;;;;11.40;4.65;;;;;;;28.09;43.92;101940.16;5094405;28;20043;-82
2023/06/08 10:49:54;;;;;;;7.53;4.45;;;;;;;28.53;44.97;101933.69;5095176;28;20043;-82
2023/06/08 10:52:22;;;;;;;12.73;4.60;;;;;;;28.71;44.24;101933.66;5094556;28;20028;-82
2023/06/08 10:55:08;;;;;;;15.73;4.70;;;;;;;28.48;42.79;101935.22;5094654;28;20141;-82
2023/06/08 10:57:49;;;;;;;15.73;4.80;;;;;;;28.88;43.28;101935.72;5095261;28;20032;-85
2023/06/08 11:00:22;;;;;;;11.02;4.20;;;;;;;29.44;41.59;101930.75;5094739;28;20481;-84
2023/06/08 11:02:52;;;;;;;6.93;3.63;;;;;;;29.23;38.97;101923.97;5094886;28;20040;-85
2023/06/08 11:05:19;;;;;;;8.23;4.18;;;;;;;29.28;40.04;101927.66;5060695;28;20356;-86
2023/06/08 11:07:45;;;;;;;11.93;3.95;;;;;;;28.98;39.81;101933.22;5094834;28;20024;-84
2023/06/08 11:10:10;;;;;;;11.05;4.10;;;;;;;28.60;39.77;101918.03;5094632;28;20043;-86
2023/06/08 11:12:36;;;;;;;7.25;3.67;;;;;;;29.13;39.96;101911.69;5094847;28;20028;-84